sensor_id;sensor_type;location;lat;lon;timestamp;temperature;humidity
45685;DHT22;46836;48.388;16.210;2023-11-21T00:01:17;6.60;99.90
45685;DHT22;46836;48.388;16.210;2023-11-21T00:03:44;6.60;99.90
45685;DHT22;46836;48.388;16.210;2023-11-21T00:06:11;6.60;99.90
45685;DHT22;46836;48.388;16.210;2023-11-21T00:08:38;6.60;99.90
45685;DHT22;46836;48.388;16.210;2023-11-21T00:11:05;6.50;99.90
45685;DHT22;46836;48.388;16.210;2023-11-21T00:13:33;6.50;99.90
45685;DHT22;46836;48.388;16.210;2023-11-21T00:16:00;6.50;99.90
45685;DHT22;46836;48.388;16.210;2023-11-21T00:18:27;6.50;99.90
45685;DHT22;46836;48.388;16.210;2023-11-21T00:20:55;6.50;99.90
45685;DHT22;46836;48.388;16.210;2023-11-21T00:23:22;6.50;99.90
45685;DHT22;46836;48.388;16.210;2023-11-21T00:25:49;6.50;99.90
45685;DHT22;46836;48.388;16.210;2023-11-21T00:28:16;6.40;99.90
45685;DHT22;46836;48.388;16.210;2023-11-21T00:30:43;6.40;99.90
45685;DHT22;46836;48.388;16.210;2023-11-21T00:33:10;6.40;99.90
45685;DHT22;46836;48.388;16.210;2023-11-21T00:35:37;6.40;99.90
45685;DHT22;46836;48.388;16.210;2023-11-21T00:38:05;6.30;99.90
45685;DHT22;46836;48.388;16.210;2023-11-21T00:40:32;6.40;99.90
45685;DHT22;46836;48.388;16.210;2023-11-21T00:42:59;6.30;99.90
45685;DHT22;46836;48.388;16.210;2023-11-21T00:45:27;6.30;99.90
45685;DHT22;46836;48.388;16.210;2023-11-21T00:47:54;6.30;99.90
45685;DHT22;46836;48.388;16.210;2023-11-21T00:50:22;6.20;99.90
45685;DHT22;46836;48.388;16.210;2023-11-21T00:52:49;6.10;99.90
45685;DHT22;46836;48.388;16.210;2023-11-21T00:55:16;6.10;99.90
45685;DHT22;46836;48.388;16.210;2023-11-21T00:57:44;6.00;99.90
45685;DHT22;46836;48.388;16.210;2023-11-21T01:00:11;5.90;99.90
45685;DHT22;46836;48.388;16.210;2023-11-21T01:02:44;5.90;99.90
45685;DHT22;46836;48.388;16.210;2023-11-21T01:05:12;5.90;99.90
45685;DHT22;46836;48.388;16.210;2023-11-21T01:07:39;5.80;99.90
45685;DHT22;46836;48.388;16.210;2023-11-21T01:10:06;5.80;99.90
45685;DHT22;46836;48.388;16.210;2023-11-21T01:12:36;5.80;99.90
45685;DHT22;46836;48.388;16.210;2023-11-21T01:15:05;5.80;99.90
45685;DHT22;46836;48.388;16.210;2023-11-21T01:17:35;5.70;99.90
45685;DHT22;46836;48.388;16.210;2023-11-21T01:20:03;5.80;99.90
45685;DHT22;46836;48.388;16.210;2023-11-21T01:22:34;5.80;99.90
45685;DHT22;46836;48.388;16.210;2023-11-21T01:25:02;5.70;99.90
45685;DHT22;46836;48.388;16.210;2023-11-21T01:27:31;5.70;99.90
45685;DHT22;46836;48.388;16.210;2023-11-21T01:29:58;5.70;99.90
45685;DHT22;46836;48.388;16.210;2023-11-21T01:32:26;5.70;99.90
45685;DHT22;46836;48.388;16.210;2023-11-21T01:34:57;5.80;99.90
45685;DHT22;46836;48.388;16.210;2023-11-21T01:37:24;5.80;99.90
45685;DHT22;46836;48.388;16.210;2023-11-21T01:39:54;5.90;99.90
45685;DHT22;46836;48.388;16.210;2023-11-21T01:42:22;5.90;99.90
45685;DHT22;46836;48.388;16.210;2023-11-21T01:44:49;6.00;99.90
45685;DHT22;46836;48.388;16.210;2023-11-21T01:47:17;6.00;99.90
45685;DHT22;46836;48.388;16.210;2023-11-21T01:49:45;6.10;99.90
45685;DHT22;46836;48.388;16.210;2023-11-21T01:52:13;6.10;99.90
45685;DHT22;46836;48.388;16.210;2023-11-21T01:54:41;6.10;99.90
45685;DHT22;46836;48.388;16.210;2023-11-21T01:57:09;6.00;99.90
45685;DHT22;46836;48.388;16.210;2023-11-21T01:59:37;6.00;99.90
45685;DHT22;46836;48.388;16.210;2023-11-21T02:02:08;6.00;99.90
45685;DHT22;46836;48.388;16.210;2023-11-21T02:04:37;6.00;99.90
45685;DHT22;46836;48.388;16.210;2023-11-21T02:07:04;5.90;99.90
45685;DHT22;46836;48.388;16.210;2023-11-21T02:09:34;5.90;99.90
45685;DHT22;46836;48.388;16.210;2023-11-21T02:12:05;5.90;99.90
45685;DHT22;46836;48.388;16.210;2023-11-21T02:14:32;5.80;99.90
45685;DHT22;46836;48.388;16.210;2023-11-21T02:17:00;5.80;99.90
45685;DHT22;46836;48.388;16.210;2023-11-21T02:19:28;5.80;99.90
45685;DHT22;46836;48.388;16.210;2023-11-21T02:21:57;5.70;99.90
45685;DHT22;46836;48.388;16.210;2023-11-21T02:24:27;5.70;99.90
45685;DHT22;46836;48.388;16.210;2023-11-21T02:26:54;5.60;99.90
45685;DHT22;46836;48.388;16.210;2023-11-21T02:29:23;5.50;99.90
45685;DHT22;46836;48.388;16.210;2023-11-21T02:31:55;5.40;99.90
45685;DHT22;46836;48.388;16.210;2023-11-21T02:34:23;5.40;99.90
45685;DHT22;46836;48.388;16.210;2023-11-21T02:36:52;5.40;99.90
45685;DHT22;46836;48.388;16.210;2023-11-21T02:39:20;5.40;99.90
45685;DHT22;46836;48.388;16.210;2023-11-21T02:41:49;5.40;99.90
45685;DHT22;46836;48.388;16.210;2023-11-21T02:44:17;5.30;99.90
45685;DHT22;46836;48.388;16.210;2023-11-21T02:46:44;5.30;99.90
45685;DHT22;46836;48.388;16.210;2023-11-21T02:49:11;5.30;99.90
45685;DHT22;46836;48.388;16.210;2023-11-21T02:51:38;5.30;99.90
45685;DHT22;46836;48.388;16.210;2023-11-21T02:54:07;5.20;99.90
45685;DHT22;46836;48.388;16.210;2023-11-21T02:56:35;5.30;99.90
45685;DHT22;46836;48.388;16.210;2023-11-21T02:59:02;5.30;99.90
45685;DHT22;46836;48.388;16.210;2023-11-21T03:01:29;5.30;99.90
45685;DHT22;46836;48.388;16.210;2023-11-21T03:03:57;5.30;99.90
45685;DHT22;46836;48.388;16.210;2023-11-21T03:06:24;5.30;99.90
45685;DHT22;46836;48.388;16.210;2023-11-21T03:08:51;5.30;99.90
45685;DHT22;46836;48.388;16.210;2023-11-21T03:11:18;5.40;99.90
45685;DHT22;46836;48.388;16.210;2023-11-21T03:13:45;5.40;99.90
45685;DHT22;46836;48.388;16.210;2023-11-21T03:16:14;5.40;99.90
45685;DHT22;46836;48.388;16.210;2023-11-21T03:18:41;5.40;99.90
45685;DHT22;46836;48.388;16.210;2023-11-21T03:21:08;5.40;99.90
45685;DHT22;46836;48.388;16.210;2023-11-21T03:23:36;5.40;99.90
45685;DHT22;46836;48.388;16.210;2023-11-21T03:26:04;5.40;99.90
45685;DHT22;46836;48.388;16.210;2023-11-21T03:28:31;5.40;99.90
45685;DHT22;46836;48.388;16.210;2023-11-21T03:30:58;5.40;99.90
45685;DHT22;46836;48.388;16.210;2023-11-21T03:33:25;5.40;99.90
45685;DHT22;46836;48.388;16.210;2023-11-21T03:35:52;5.30;99.90
45685;DHT22;46836;48.388;16.210;2023-11-21T03:38:20;5.30;99.90
45685;DHT22;46836;48.388;16.210;2023-11-21T03:40:47;5.30;99.90
45685;DHT22;46836;48.388;16.210;2023-11-21T03:43:14;5.30;99.90
45685;DHT22;46836;48.388;16.210;2023-11-21T03:45:41;5.30;99.90
45685;DHT22;46836;48.388;16.210;2023-11-21T03:48:09;5.30;99.90
45685;DHT22;46836;48.388;16.210;2023-11-21T03:50:36;5.30;99.90
45685;DHT22;46836;48.388;16.210;2023-11-21T03:53:03;5.30;99.90
45685;DHT22;46836;48.388;16.210;2023-11-21T03:55:31;5.30;99.90
45685;DHT22;46836;48.388;16.210;2023-11-21T03:57:58;5.40;99.90
45685;DHT22;46836;48.388;16.210;2023-11-21T04:00:26;5.30;99.90
45685;DHT22;46836;48.388;16.210;2023-11-21T04:02:53;5.30;99.90
45685;DHT22;46836;48.388;16.210;2023-11-21T04:05:21;5.30;99.90
45685;DHT22;46836;48.388;16.210;2023-11-21T04:07:51;5.30;99.90
45685;DHT22;46836;48.388;16.210;2023-11-21T04:10:19;5.30;99.90
45685;DHT22;46836;48.388;16.210;2023-11-21T04:12:46;5.30;99.90
45685;DHT22;46836;48.388;16.210;2023-11-21T04:15:14;5.20;99.90
45685;DHT22;46836;48.388;16.210;2023-11-21T04:17:41;5.20;99.90
45685;DHT22;46836;48.388;16.210;2023-11-21T04:20:09;5.20;99.90
45685;DHT22;46836;48.388;16.210;2023-11-21T04:22:41;5.20;99.90
45685;DHT22;46836;48.388;16.210;2023-11-21T04:25:13;5.30;99.90
45685;DHT22;46836;48.388;16.210;2023-11-21T04:27:41;5.30;99.90
45685;DHT22;46836;48.388;16.210;2023-11-21T04:30:11;5.30;99.90
45685;DHT22;46836;48.388;16.210;2023-11-21T04:32:39;5.30;99.90
45685;DHT22;46836;48.388;16.210;2023-11-21T04:35:06;5.20;99.90
45685;DHT22;46836;48.388;16.210;2023-11-21T04:37:35;5.20;99.90
45685;DHT22;46836;48.388;16.210;2023-11-21T04:40:03;5.20;99.90
45685;DHT22;46836;48.388;16.210;2023-11-21T04:42:34;5.30;99.90
45685;DHT22;46836;48.388;16.210;2023-11-21T04:45:04;5.30;99.90
45685;DHT22;46836;48.388;16.210;2023-11-21T04:47:36;5.30;99.90
45685;DHT22;46836;48.388;16.210;2023-11-21T04:50:04;5.30;99.90
45685;DHT22;46836;48.388;16.210;2023-11-21T04:52:32;5.20;99.90
45685;DHT22;46836;48.388;16.210;2023-11-21T04:55:00;5.20;99.90
45685;DHT22;46836;48.388;16.210;2023-11-21T04:57:28;5.20;99.90
45685;DHT22;46836;48.388;16.210;2023-11-21T04:59:56;5.10;99.90
45685;DHT22;46836;48.388;16.210;2023-11-21T05:02:23;5.10;99.90
45685;DHT22;46836;48.388;16.210;2023-11-21T05:05:02;5.00;99.90
45685;DHT22;46836;48.388;16.210;2023-11-21T05:07:29;5.00;99.90
45685;DHT22;46836;48.388;16.210;2023-11-21T05:09:58;5.00;99.90
45685;DHT22;46836;48.388;16.210;2023-11-21T05:12:25;4.90;99.90
45685;DHT22;46836;48.388;16.210;2023-11-21T05:14:52;4.90;99.90
45685;DHT22;46836;48.388;16.210;2023-11-21T05:17:19;4.90;99.90
45685;DHT22;46836;48.388;16.210;2023-11-21T05:19:47;4.80;99.90
45685;DHT22;46836;48.388;16.210;2023-11-21T05:22:16;4.80;99.90
45685;DHT22;46836;48.388;16.210;2023-11-21T05:24:43;4.80;99.90
45685;DHT22;46836;48.388;16.210;2023-11-21T05:27:10;4.80;99.90
45685;DHT22;46836;48.388;16.210;2023-11-21T05:29:37;4.90;99.90
45685;DHT22;46836;48.388;16.210;2023-11-21T05:32:04;4.80;99.90
45685;DHT22;46836;48.388;16.210;2023-11-21T05:34:32;4.90;99.90
45685;DHT22;46836;48.388;16.210;2023-11-21T05:36:59;4.90;99.90
45685;DHT22;46836;48.388;16.210;2023-11-21T05:39:26;4.90;99.90
45685;DHT22;46836;48.388;16.210;2023-11-21T05:41:54;4.90;99.90
45685;DHT22;46836;48.388;16.210;2023-11-21T05:44:22;4.90;99.90
45685;DHT22;46836;48.388;16.210;2023-11-21T05:46:50;4.80;99.90
45685;DHT22;46836;48.388;16.210;2023-11-21T05:49:17;4.80;99.90
45685;DHT22;46836;48.388;16.210;2023-11-21T05:51:48;4.80;99.90
45685;DHT22;46836;48.388;16.210;2023-11-21T05:54:15;4.80;99.90
45685;DHT22;46836;48.388;16.210;2023-11-21T05:56:43;4.70;99.90
45685;DHT22;46836;48.388;16.210;2023-11-21T05:59:11;4.70;99.90
45685;DHT22;46836;48.388;16.210;2023-11-21T06:01:38;4.70;99.90
45685;DHT22;46836;48.388;16.210;2023-11-21T06:04:05;4.80;99.90
45685;DHT22;46836;48.388;16.210;2023-11-21T06:06:36;4.90;99.90
45685;DHT22;46836;48.388;16.210;2023-11-21T06:09:03;4.90;99.90
45685;DHT22;46836;48.388;16.210;2023-11-21T06:11:30;5.00;99.90
45685;DHT22;46836;48.388;16.210;2023-11-21T06:13:57;5.00;99.90
45685;DHT22;46836;48.388;16.210;2023-11-21T06:16:25;5.10;99.90
45685;DHT22;46836;48.388;16.210;2023-11-21T06:18:52;5.10;99.90
45685;DHT22;46836;48.388;16.210;2023-11-21T06:21:19;5.20;99.90
45685;DHT22;46836;48.388;16.210;2023-11-21T06:23:46;5.40;99.90
45685;DHT22;46836;48.388;16.210;2023-11-21T06:26:17;5.40;99.90
45685;DHT22;46836;48.388;16.210;2023-11-21T06:28:45;5.40;99.90
45685;DHT22;46836;48.388;16.210;2023-11-21T06:31:12;5.60;99.90
45685;DHT22;46836;48.388;16.210;2023-11-21T06:33:41;5.70;99.90
45685;DHT22;46836;48.388;16.210;2023-11-21T06:36:08;5.80;99.90
45685;DHT22;46836;48.388;16.210;2023-11-21T06:38:38;6.00;99.90
45685;DHT22;46836;48.388;16.210;2023-11-21T06:41:06;6.10;99.90
45685;DHT22;46836;48.388;16.210;2023-11-21T06:43:34;6.10;99.90
45685;DHT22;46836;48.388;16.210;2023-11-21T06:46:01;6.20;99.90
45685;DHT22;46836;48.388;16.210;2023-11-21T06:48:28;6.30;99.90
45685;DHT22;46836;48.388;16.210;2023-11-21T06:50:57;6.30;99.90
45685;DHT22;46836;48.388;16.210;2023-11-21T06:53:24;6.40;99.90
45685;DHT22;46836;48.388;16.210;2023-11-21T06:55:51;6.40;99.90
45685;DHT22;46836;48.388;16.210;2023-11-21T06:58:18;6.40;99.90
45685;DHT22;46836;48.388;16.210;2023-11-21T07:00:46;6.40;99.90
45685;DHT22;46836;48.388;16.210;2023-11-21T07:03:15;6.50;99.90
45685;DHT22;46836;48.388;16.210;2023-11-21T07:05:42;6.50;99.90
45685;DHT22;46836;48.388;16.210;2023-11-21T07:08:09;6.60;99.90
45685;DHT22;46836;48.388;16.210;2023-11-21T07:10:37;6.60;99.90
45685;DHT22;46836;48.388;16.210;2023-11-21T07:13:05;6.70;99.90
45685;DHT22;46836;48.388;16.210;2023-11-21T07:15:32;6.70;99.90
45685;DHT22;46836;48.388;16.210;2023-11-21T07:17:59;6.70;99.90
45685;DHT22;46836;48.388;16.210;2023-11-21T07:20:26;6.80;99.90
45685;DHT22;46836;48.388;16.210;2023-11-21T07:22:54;6.80;99.90
45685;DHT22;46836;48.388;16.210;2023-11-21T07:25:23;6.90;99.90
45685;DHT22;46836;48.388;16.210;2023-11-21T07:27:50;7.00;99.90
45685;DHT22;46836;48.388;16.210;2023-11-21T07:30:17;7.10;99.90
45685;DHT22;46836;48.388;16.210;2023-11-21T07:32:44;7.10;99.90
45685;DHT22;46836;48.388;16.210;2023-11-21T07:35:11;7.20;99.90
45685;DHT22;46836;48.388;16.210;2023-11-21T07:37:39;7.20;99.90
45685;DHT22;46836;48.388;16.210;2023-11-21T07:40:06;7.30;99.90
45685;DHT22;46836;48.388;16.210;2023-11-21T07:42:35;7.50;99.90
45685;DHT22;46836;48.388;16.210;2023-11-21T07:45:04;7.60;99.90
45685;DHT22;46836;48.388;16.210;2023-11-21T07:47:31;7.70;99.90
45685;DHT22;46836;48.388;16.210;2023-11-21T07:50:05;7.80;99.90
45685;DHT22;46836;48.388;16.210;2023-11-21T07:52:34;8.00;99.90
45685;DHT22;46836;48.388;16.210;2023-11-21T07:55:02;8.10;99.90
45685;DHT22;46836;48.388;16.210;2023-11-21T07:57:29;8.20;99.90
45685;DHT22;46836;48.388;16.210;2023-11-21T07:59:56;8.30;99.90
45685;DHT22;46836;48.388;16.210;2023-11-21T08:02:23;8.40;99.90
45685;DHT22;46836;48.388;16.210;2023-11-21T08:04:51;8.40;99.90
45685;DHT22;46836;48.388;16.210;2023-11-21T08:07:18;8.40;99.90
45685;DHT22;46836;48.388;16.210;2023-11-21T08:09:45;8.50;99.90
45685;DHT22;46836;48.388;16.210;2023-11-21T08:12:15;8.50;99.90
45685;DHT22;46836;48.388;16.210;2023-11-21T08:14:42;8.50;99.90
45685;DHT22;46836;48.388;16.210;2023-11-21T08:17:10;8.60;99.90
45685;DHT22;46836;48.388;16.210;2023-11-21T08:19:40;8.70;99.90
45685;DHT22;46836;48.388;16.210;2023-11-21T08:22:07;8.80;99.90
45685;DHT22;46836;48.388;16.210;2023-11-21T08:24:35;8.90;99.90
45685;DHT22;46836;48.388;16.210;2023-11-21T08:27:02;9.00;99.90
45685;DHT22;46836;48.388;16.210;2023-11-21T08:29:31;9.10;99.90
45685;DHT22;46836;48.388;16.210;2023-11-21T08:31:58;9.30;99.90
45685;DHT22;46836;48.388;16.210;2023-11-21T08:34:26;9.40;99.90
45685;DHT22;46836;48.388;16.210;2023-11-21T08:36:55;9.50;99.90
45685;DHT22;46836;48.388;16.210;2023-11-21T08:39:24;9.50;99.90
45685;DHT22;46836;48.388;16.210;2023-11-21T08:41:51;9.50;99.90
45685;DHT22;46836;48.388;16.210;2023-11-21T08:44:18;9.60;99.90
45685;DHT22;46836;48.388;16.210;2023-11-21T08:46:46;9.50;99.90
45685;DHT22;46836;48.388;16.210;2023-11-21T08:49:14;9.50;99.90
45685;DHT22;46836;48.388;16.210;2023-11-21T08:51:44;9.50;99.90
45685;DHT22;46836;48.388;16.210;2023-11-21T08:54:11;9.40;99.90
45685;DHT22;46836;48.388;16.210;2023-11-21T08:56:38;9.40;99.90
45685;DHT22;46836;48.388;16.210;2023-11-21T08:59:05;9.50;99.90
45685;DHT22;46836;48.388;16.210;2023-11-21T09:01:34;9.50;99.90
45685;DHT22;46836;48.388;16.210;2023-11-21T09:04:02;9.50;99.90
45685;DHT22;46836;48.388;16.210;2023-11-21T09:06:29;9.60;99.90
45685;DHT22;46836;48.388;16.210;2023-11-21T09:08:56;9.50;99.90
45685;DHT22;46836;48.388;16.210;2023-11-21T09:11:24;9.50;99.90
45685;DHT22;46836;48.388;16.210;2023-11-21T09:13:52;9.50;99.90
45685;DHT22;46836;48.388;16.210;2023-11-21T09:16:19;9.50;99.90
45685;DHT22;46836;48.388;16.210;2023-11-21T09:18:46;9.50;99.90
45685;DHT22;46836;48.388;16.210;2023-11-21T09:21:14;9.50;99.90
45685;DHT22;46836;48.388;16.210;2023-11-21T09:23:42;9.50;99.90
45685;DHT22;46836;48.388;16.210;2023-11-21T09:26:09;9.50;99.90
45685;DHT22;46836;48.388;16.210;2023-11-21T09:28:37;9.50;99.90
45685;DHT22;46836;48.388;16.210;2023-11-21T09:31:06;9.60;99.90
45685;DHT22;46836;48.388;16.210;2023-11-21T09:33:35;9.60;99.90
45685;DHT22;46836;48.388;16.210;2023-11-21T09:36:03;9.70;99.90
45685;DHT22;46836;48.388;16.210;2023-11-21T09:38:31;9.80;99.90
45685;DHT22;46836;48.388;16.210;2023-11-21T09:40:59;9.90;99.90
45685;DHT22;46836;48.388;16.210;2023-11-21T09:43:28;10.00;99.90
45685;DHT22;46836;48.388;16.210;2023-11-21T09:46:00;10.00;99.90
45685;DHT22;46836;48.388;16.210;2023-11-21T09:48:30;10.10;99.90
45685;DHT22;46836;48.388;16.210;2023-11-21T09:51:00;10.20;99.90
45685;DHT22;46836;48.388;16.210;2023-11-21T09:53:31;10.20;99.90
45685;DHT22;46836;48.388;16.210;2023-11-21T09:56:00;10.30;99.90
45685;DHT22;46836;48.388;16.210;2023-11-21T09:58:29;10.40;99.90
45685;DHT22;46836;48.388;16.210;2023-11-21T10:00:58;10.50;99.90
45685;DHT22;46836;48.388;16.210;2023-11-21T10:03:26;10.70;99.90
45685;DHT22;46836;48.388;16.210;2023-11-21T10:05:54;10.90;99.90
45685;DHT22;46836;48.388;16.210;2023-11-21T10:08:24;11.00;99.90
45685;DHT22;46836;48.388;16.210;2023-11-21T10:11:12;11.20;99.90
45685;DHT22;46836;48.388;16.210;2023-11-21T10:13:42;11.30;99.90
45685;DHT22;46836;48.388;16.210;2023-11-21T10:16:11;11.50;99.90
45685;DHT22;46836;48.388;16.210;2023-11-21T10:18:41;11.70;99.90
45685;DHT22;46836;48.388;16.210;2023-11-21T10:21:09;11.70;99.90
45685;DHT22;46836;48.388;16.210;2023-11-21T10:23:36;11.70;99.90
45685;DHT22;46836;48.388;16.210;2023-11-21T10:26:04;11.70;99.90
45685;DHT22;46836;48.388;16.210;2023-11-21T10:28:58;11.70;99.90
45685;DHT22;46836;48.388;16.210;2023-11-21T10:31:33;11.60;99.90
45685;DHT22;46836;48.388;16.210;2023-11-21T10:34:14;11.60;99.90
45685;DHT22;46836;48.388;16.210;2023-11-21T10:36:42;11.70;99.90
45685;DHT22;46836;48.388;16.210;2023-11-21T10:39:13;11.70;99.90
45685;DHT22;46836;48.388;16.210;2023-11-21T10:41:41;11.70;99.90
45685;DHT22;46836;48.388;16.210;2023-11-21T10:44:08;11.70;99.90
45685;DHT22;46836;48.388;16.210;2023-11-21T10:46:36;11.70;99.90
45685;DHT22;46836;48.388;16.210;2023-11-21T10:49:04;11.80;99.90
45685;DHT22;46836;48.388;16.210;2023-11-21T10:51:31;12.10;99.90
45685;DHT22;46836;48.388;16.210;2023-11-21T10:53:59;12.20;99.90
45685;DHT22;46836;48.388;16.210;2023-11-21T10:56:27;12.30;99.90
45685;DHT22;46836;48.388;16.210;2023-11-21T10:58:57;12.40;99.90
45685;DHT22;46836;48.388;16.210;2023-11-21T11:01:27;12.40;99.90
45685;DHT22;46836;48.388;16.210;2023-11-21T11:03:56;12.40;99.90
45685;DHT22;46836;48.388;16.210;2023-11-21T11:06:25;12.40;99.90
45685;DHT22;46836;48.388;16.210;2023-11-21T11:08:54;12.40;99.90
45685;DHT22;46836;48.388;16.210;2023-11-21T11:11:21;12.30;99.90
45685;DHT22;46836;48.388;16.210;2023-11-21T11:13:49;12.30;99.90
45685;DHT22;46836;48.388;16.210;2023-11-21T11:16:17;12.40;99.90
45685;DHT22;46836;48.388;16.210;2023-11-21T11:18:44;12.40;99.90
45685;DHT22;46836;48.388;16.210;2023-11-21T11:21:26;12.50;99.90
45685;DHT22;46836;48.388;16.210;2023-11-21T11:26:58;12.40;99.90
45685;DHT22;46836;48.388;16.210;2023-11-21T11:29:38;12.30;99.90
45685;DHT22;46836;48.388;16.210;2023-11-21T11:32:13;12.30;99.90
45685;DHT22;46836;48.388;16.210;2023-11-21T11:35:50;12.20;99.90
45685;DHT22;46836;48.388;16.210;2023-11-21T11:37:45;12.30;99.90
45685;DHT22;46836;48.388;16.210;2023-11-21T11:40:13;12.20;99.90
45685;DHT22;46836;48.388;16.210;2023-11-21T11:42:58;12.20;99.90
45685;DHT22;46836;48.388;16.210;2023-11-21T11:45:33;12.30;99.90
45685;DHT22;46836;48.388;16.210;2023-11-21T11:48:02;12.30;99.90
45685;DHT22;46836;48.388;16.210;2023-11-21T11:50:30;12.30;99.90
45685;DHT22;46836;48.388;16.210;2023-11-21T11:53:12;12.30;99.90
45685;DHT22;46836;48.388;16.210;2023-11-21T11:55:40;12.40;99.90
45685;DHT22;46836;48.388;16.210;2023-11-21T11:58:08;12.50;99.90
45685;DHT22;46836;48.388;16.210;2023-11-21T12:00:35;12.50;99.90
45685;DHT22;46836;48.388;16.210;2023-11-21T12:03:09;12.50;99.90
45685;DHT22;46836;48.388;16.210;2023-11-21T12:05:36;12.50;99.90
45685;DHT22;46836;48.388;16.210;2023-11-21T12:08:07;12.50;99.90
45685;DHT22;46836;48.388;16.210;2023-11-21T12:10:36;12.40;99.90
45685;DHT22;46836;48.388;16.210;2023-11-21T12:13:09;12.40;99.90
45685;DHT22;46836;48.388;16.210;2023-11-21T12:15:37;12.50;99.90
45685;DHT22;46836;48.388;16.210;2023-11-21T12:18:07;12.50;99.90
45685;DHT22;46836;48.388;16.210;2023-11-21T12:20:34;12.50;99.90
45685;DHT22;46836;48.388;16.210;2023-11-21T12:23:07;12.50;99.90
45685;DHT22;46836;48.388;16.210;2023-11-21T12:25:36;12.50;99.90
45685;DHT22;46836;48.388;16.210;2023-11-21T12:28:04;12.40;99.90
45685;DHT22;46836;48.388;16.210;2023-11-21T12:30:34;12.40;99.90
45685;DHT22;46836;48.388;16.210;2023-11-21T12:33:05;12.40;99.90
45685;DHT22;46836;48.388;16.210;2023-11-21T12:35:36;12.40;99.90
45685;DHT22;46836;48.388;16.210;2023-11-21T12:38:04;12.40;99.90
45685;DHT22;46836;48.388;16.210;2023-11-21T12:40:32;12.40;99.90
45685;DHT22;46836;48.388;16.210;2023-11-21T12:43:00;12.40;99.90
45685;DHT22;46836;48.388;16.210;2023-11-21T12:45:29;12.30;99.90
45685;DHT22;46836;48.388;16.210;2023-11-21T12:48:05;12.30;99.90
45685;DHT22;46836;48.388;16.210;2023-11-21T12:50:38;12.20;99.90
45685;DHT22;46836;48.388;16.210;2023-11-21T12:53:07;12.20;99.90
45685;DHT22;46836;48.388;16.210;2023-11-21T12:55:39;12.10;99.90
45685;DHT22;46836;48.388;16.210;2023-11-21T12:58:10;12.10;99.90
45685;DHT22;46836;48.388;16.210;2023-11-21T13:00:45;12.00;99.90
45685;DHT22;46836;48.388;16.210;2023-11-21T13:03:14;12.00;99.90
45685;DHT22;46836;48.388;16.210;2023-11-21T13:05:48;12.00;99.90
45685;DHT22;46836;48.388;16.210;2023-11-21T13:08:20;12.00;99.90
45685;DHT22;46836;48.388;16.210;2023-11-21T13:10:55;11.90;99.90
45685;DHT22;46836;48.388;16.210;2023-11-21T13:13:25;11.90;99.90
45685;DHT22;46836;48.388;16.210;2023-11-21T13:16:02;11.90;99.90
45685;DHT22;46836;48.388;16.210;2023-11-21T13:18:33;11.90;99.90
45685;DHT22;46836;48.388;16.210;2023-11-21T13:21:05;11.80;99.90
45685;DHT22;46836;48.388;16.210;2023-11-21T13:23:37;11.70;99.90
45685;DHT22;46836;48.388;16.210;2023-11-21T13:26:05;11.70;99.90
45685;DHT22;46836;48.388;16.210;2023-11-21T13:28:34;11.60;99.90
45685;DHT22;46836;48.388;16.210;2023-11-21T13:31:03;11.50;99.90
45685;DHT22;46836;48.388;16.210;2023-11-21T13:33:41;11.40;99.90
45685;DHT22;46836;48.388;16.210;2023-11-21T13:36:10;11.40;99.90
45685;DHT22;46836;48.388;16.210;2023-11-21T13:38:38;11.30;99.90
45685;DHT22;46836;48.388;16.210;2023-11-21T13:41:10;11.20;99.90
45685;DHT22;46836;48.388;16.210;2023-11-21T13:43:39;11.10;99.90
45685;DHT22;46836;48.388;16.210;2023-11-21T13:46:06;11.10;99.90
45685;DHT22;46836;48.388;16.210;2023-11-21T13:48:50;11.10;99.90
45685;DHT22;46836;48.388;16.210;2023-11-21T13:51:24;11.10;99.90
45685;DHT22;46836;48.388;16.210;2023-11-21T13:54:12;11.00;99.90
45685;DHT22;46836;48.388;16.210;2023-11-21T13:56:40;11.00;99.90
45685;DHT22;46836;48.388;16.210;2023-11-21T13:59:08;10.90;99.90
45685;DHT22;46836;48.388;16.210;2023-11-21T14:01:53;10.90;99.90
45685;DHT22;46836;48.388;16.210;2023-11-21T14:04:24;10.90;99.90
45685;DHT22;46836;48.388;16.210;2023-11-21T14:06:58;10.80;99.90
45685;DHT22;46836;48.388;16.210;2023-11-21T14:09:29;10.80;99.90
45685;DHT22;46836;48.388;16.210;2023-11-21T14:12:11;10.80;99.90
45685;DHT22;46836;48.388;16.210;2023-11-21T14:14:40;10.70;99.90
45685;DHT22;46836;48.388;16.210;2023-11-21T14:17:07;10.80;99.90
45685;DHT22;46836;48.388;16.210;2023-11-21T14:19:35;10.70;99.90
45685;DHT22;46836;48.388;16.210;2023-11-21T14:22:07;10.70;99.90
45685;DHT22;46836;48.388;16.210;2023-11-21T14:24:37;10.70;99.90
45685;DHT22;46836;48.388;16.210;2023-11-21T14:27:04;10.60;99.90
45685;DHT22;46836;48.388;16.210;2023-11-21T14:29:32;10.60;99.90
45685;DHT22;46836;48.388;16.210;2023-11-21T14:32:05;10.50;99.90
45685;DHT22;46836;48.388;16.210;2023-11-21T14:34:35;10.50;99.90
45685;DHT22;46836;48.388;16.210;2023-11-21T14:37:03;10.40;99.90
45685;DHT22;46836;48.388;16.210;2023-11-21T14:39:30;10.30;99.90
45685;DHT22;46836;48.388;16.210;2023-11-21T14:42:02;10.20;99.90
45685;DHT22;46836;48.388;16.210;2023-11-21T14:44:29;10.20;99.90
45685;DHT22;46836;48.388;16.210;2023-11-21T14:47:02;10.10;99.90
45685;DHT22;46836;48.388;16.210;2023-11-21T14:49:34;10.00;99.90
45685;DHT22;46836;48.388;16.210;2023-11-21T14:52:18;10.00;99.90
45685;DHT22;46836;48.388;16.210;2023-11-21T14:55:02;10.00;99.90
45685;DHT22;46836;48.388;16.210;2023-11-21T14:57:52;10.00;99.90
45685;DHT22;46836;48.388;16.210;2023-11-21T15:00:21;10.00;99.90
45685;DHT22;46836;48.388;16.210;2023-11-21T15:03:04;10.00;99.90
45685;DHT22;46836;48.388;16.210;2023-11-21T15:05:32;10.00;99.90
45685;DHT22;46836;48.388;16.210;2023-11-21T15:08:02;10.00;99.90
45685;DHT22;46836;48.388;16.210;2023-11-21T15:10:48;10.00;99.90
45685;DHT22;46836;48.388;16.210;2023-11-21T15:13:21;9.90;99.90
45685;DHT22;46836;48.388;16.210;2023-11-21T15:15:54;10.00;99.90
45685;DHT22;46836;48.388;16.210;2023-11-21T15:18:21;9.90;99.90
45685;DHT22;46836;48.388;16.210;2023-11-21T15:20:49;9.90;99.90
45685;DHT22;46836;48.388;16.210;2023-11-21T15:23:16;10.00;99.90
45685;DHT22;46836;48.388;16.210;2023-11-21T15:25:46;9.90;99.90
45685;DHT22;46836;48.388;16.210;2023-11-21T15:28:13;9.90;99.90
45685;DHT22;46836;48.388;16.210;2023-11-21T15:30:41;9.90;99.90
45685;DHT22;46836;48.388;16.210;2023-11-21T15:33:08;9.90;99.90
45685;DHT22;46836;48.388;16.210;2023-11-21T15:35:36;9.90;99.90
45685;DHT22;46836;48.388;16.210;2023-11-21T15:38:05;9.90;99.90
45685;DHT22;46836;48.388;16.210;2023-11-21T15:40:34;9.90;99.90